Tropical Cyclones
[Index]
Main Index Home Page Stock Weather Photos Extreme Storms Discussion Storm News and Storm Chasing Reports Tropical Cyclones / Hurricanes / Typhoons Weather Data and Links Wild Fires / Bushfires Weather Observation Techniques Weather Picture Catalogue Tornado Pictures and Reports Stock Video Footage and DVDs for sale
Season 2014-2015 Tropical Cyclone CHEDZA Track Map
Season 2014-2015 Summaries: [BoM-AU] [JTWC-AU] [JTWC-SIO] [JTWC-SPAC] [JTWC-SH]
<<- Previous TC | JTWC 2014-2015 Season | Next TC ->>

click for intensity scale information  Lat/long Grid: Show Hide

 Date Labels: Show Hide

Joint Typhoon Warning Centre Cyclone Data

Name: CHEDZA

15 Jan 2015 12:00 UTC to 21 Jan 2015 00:00 UTC

    date/time    lat    long     hPa   cat  kts
2015-01-15 12   19.1    41.2    1000         30          
2015-01-15 18   19.1    41.8     996         35          
2015-01-16 00   19.2    42.4     993    1    40          
2015-01-16 06   19.5    43.2     989    1    45          
2015-01-16 12   20.0    44.1     985    1    50          
2015-01-16 18   20.6    45.0     993    1    40          
2015-01-17 00   21.2    46.3     996         35          
2015-01-17 06   21.7    47.8    1000         30          
2015-01-17 12   21.8    49.3    1000         30          
2015-01-17 18   21.8    50.6     996         35          
2015-01-18 00   21.9    51.3     996         35          
2015-01-18 06   22.3    51.9     993    1    40          
2015-01-18 12   22.8    52.4     993    1    40          
2015-01-18 18   23.4    52.5     989    1    45          
2015-01-19 00   23.8    52.5     985    1    50          
2015-01-19 06   24.7    52.5     985    1    50          
2015-01-19 12   25.4    52.6     989    1    45          
2015-01-19 18   26.2    52.7     989    1    45          
2015-01-20 00   27.1    53.0     989    1    45          
2015-01-20 06   28.3    53.4     989    1    45          
2015-01-20 12   29.4    54.1     989    1    45          
2015-01-20 18   30.7    55.1     993    1    40          
2015-01-21 00   31.9    56.7     993    1    40          
Winds are 1-min average.

Tropical cyclone tracks developed by Michael Bath using data from the Joint Typhoon Warning Centre Best Tracks and Google Maps.


[Australian Severe Weather index] [Copyright Notice] [Email Contacts] [Search This Site] [Privacy Policy]
Document: tropical_cyclone_chedza.htm Updated: 28 June 2017